createdAt,value
2023-05-06T00:00:14.586Z,6.77
2023-05-06T00:03:17.672Z,7.13
2023-05-06T00:06:21.442Z,7.13
2023-05-06T00:09:26.154Z,7.13
2023-05-06T00:12:29.170Z,7.00
2023-05-06T00:15:32.393Z,7.23
2023-05-06T00:18:35.650Z,6.93
2023-05-06T00:21:38.953Z,6.93
2023-05-06T00:24:43.275Z,6.97
2023-05-06T00:27:46.386Z,7.60
2023-05-06T00:30:49.640Z,7.40
2023-05-06T00:33:52.742Z,7.17
2023-05-06T00:36:55.848Z,7.30
2023-05-06T00:40:00.267Z,7.47
2023-05-06T00:43:03.550Z,8.07
2023-05-06T00:46:07.516Z,8.00
2023-05-06T00:49:13.349Z,7.37
2023-05-06T00:52:16.972Z,7.67
2023-05-06T00:55:22.380Z,7.73
2023-05-06T00:58:25.360Z,7.87
2023-05-06T01:01:28.962Z,8.40
2023-05-06T01:04:32.195Z,8.30
2023-05-06T01:07:42.051Z,8.17
2023-05-06T01:10:54.385Z,8.00
2023-05-06T01:14:03.283Z,8.17
2023-05-06T01:17:11.605Z,9.23
2023-05-06T01:20:15.781Z,8.40
2023-05-06T01:23:20.695Z,8.50
2023-05-06T01:26:23.856Z,8.67
2023-05-06T01:29:27.250Z,8.90
2023-05-06T01:32:39.778Z,9.43
2023-05-06T01:35:51.801Z,8.87
2023-05-06T01:39:02.196Z,8.37
2023-05-06T01:42:06.549Z,8.43
2023-05-06T01:45:12.091Z,8.43
2023-05-06T01:48:15.425Z,8.77
2023-05-06T01:51:18.441Z,9.23
2023-05-06T01:54:22.859Z,8.33
2023-05-06T01:57:26.077Z,9.07
2023-05-06T02:00:29.143Z,8.90
2023-05-06T02:03:32.256Z,8.27
2023-05-06T02:06:35.565Z,8.43
2023-05-06T02:09:39.880Z,8.23
2023-05-06T02:12:43.307Z,8.27
2023-05-06T02:15:46.431Z,8.73
2023-05-06T02:18:49.438Z,9.77
2023-05-06T02:21:54.483Z,8.90
2023-05-06T02:24:58.839Z,8.10
2023-05-06T02:28:01.784Z,8.87
2023-05-06T02:31:04.913Z,8.83
2023-05-06T02:34:08.269Z,8.30
2023-05-06T02:37:11.318Z,9.60
2023-05-06T02:40:15.831Z,8.67
2023-05-06T02:43:18.810Z,8.40
2023-05-06T02:46:21.772Z,9.07
2023-05-06T02:49:24.788Z,8.47
2023-05-06T02:52:27.697Z,8.70
2023-05-06T02:55:32.105Z,8.83
2023-05-06T02:58:35.132Z,8.30
2023-05-06T03:01:38.131Z,8.90
2023-05-06T03:04:41.698Z,8.27
2023-05-06T03:07:45.041Z,8.00
2023-05-06T03:10:50.344Z,8.60
2023-05-06T03:13:53.348Z,8.67
2023-05-06T03:16:56.304Z,8.60
2023-05-06T03:19:59.345Z,7.70
2023-05-06T03:23:02.484Z,8.30
2023-05-06T03:26:07.033Z,8.80
2023-05-06T03:29:10.280Z,8.83
2023-05-06T03:32:13.434Z,9.10
2023-05-06T03:35:17.042Z,9.20
2023-05-06T03:38:20.063Z,9.20
2023-05-06T03:41:25.444Z,9.03
2023-05-06T03:44:28.752Z,8.90
2023-05-06T03:47:32.079Z,9.47
2023-05-06T03:50:35.204Z,8.87
2023-05-06T03:53:38.209Z,8.80
2023-05-06T03:56:42.665Z,9.03
2023-05-06T03:59:45.642Z,8.93
2023-05-06T04:02:48.889Z,8.67
2023-05-06T04:05:51.896Z,8.43
2023-05-06T04:08:54.828Z,9.73
2023-05-06T04:11:59.265Z,9.90
2023-05-06T04:15:02.356Z,9.30
2023-05-06T04:18:07.586Z,8.57
2023-05-06T04:21:12.037Z,9.47
2023-05-06T04:24:15.960Z,10.17
2023-05-06T04:27:20.727Z,9.70
2023-05-06T04:30:24.066Z,9.40
2023-05-06T04:33:27.470Z,10.20
2023-05-06T04:36:30.668Z,9.73
2023-05-06T04:39:34.201Z,9.00
2023-05-06T04:42:39.486Z,9.27
2023-05-06T04:45:49.346Z,8.77
2023-05-06T04:48:52.793Z,9.50
2023-05-06T04:51:56.322Z,8.43
2023-05-06T04:54:59.457Z,9.77
2023-05-06T04:58:03.935Z,9.00
2023-05-06T05:01:10.051Z,9.07
2023-05-06T05:04:13.262Z,8.70
2023-05-06T05:07:16.329Z,8.90
2023-05-06T05:10:19.463Z,9.53
2023-05-06T05:13:23.845Z,9.20
2023-05-06T05:16:28.334Z,8.80
2023-05-06T05:19:31.355Z,8.37
2023-05-06T05:22:36.565Z,9.60
2023-05-06T05:25:39.706Z,9.20
2023-05-06T05:28:44.233Z,9.70
2023-05-06T05:31:47.238Z,9.03
2023-05-06T05:34:50.508Z,9.40
2023-05-06T05:37:53.495Z,9.00
2023-05-06T05:40:56.650Z,9.03
2023-05-06T05:44:01.301Z,8.87
2023-05-06T05:47:05.245Z,9.57
2023-05-06T05:50:09.495Z,8.67
2023-05-06T05:53:12.592Z,8.53
2023-05-06T05:56:15.919Z,8.80
2023-05-06T05:59:20.822Z,9.00
2023-05-06T06:02:23.940Z,8.47
2023-05-06T06:05:26.962Z,8.70
2023-05-06T06:08:32.386Z,8.97
2023-05-06T06:11:35.384Z,8.53
2023-05-06T06:14:40.043Z,9.47
2023-05-06T06:17:43.699Z,9.03
2023-05-06T06:20:46.929Z,9.23
2023-05-06T06:23:49.984Z,9.33
2023-05-06T06:26:52.908Z,8.80
2023-05-06T06:29:57.336Z,8.87
2023-05-06T06:33:01.510Z,8.97
2023-05-06T06:36:05.577Z,8.57
2023-05-06T06:39:08.796Z,8.73
2023-05-06T06:42:11.765Z,8.67
2023-05-06T06:45:16.560Z,9.47
2023-05-06T06:48:19.722Z,8.13
2023-05-06T06:51:22.854Z,8.87
2023-05-06T06:54:25.927Z,9.20
2023-05-06T06:57:28.922Z,8.47
2023-05-06T07:00:33.504Z,10.10
2023-05-06T07:03:36.540Z,8.53
2023-05-06T07:06:41.313Z,9.70
2023-05-06T07:09:44.436Z,9.83
2023-05-06T07:12:48.838Z,9.47
2023-05-06T07:15:53.247Z,9.40
2023-05-06T07:18:56.307Z,8.60
2023-05-06T07:21:59.331Z,9.80
2023-05-06T07:25:02.348Z,9.23
2023-05-06T07:28:05.796Z,9.20
2023-05-06T07:31:10.261Z,9.83
2023-05-06T07:34:13.360Z,9.43
2023-05-06T07:37:17.736Z,9.77
2023-05-06T07:40:20.774Z,9.43
2023-05-06T07:43:23.935Z,10.37
2023-05-06T07:46:28.577Z,10.73
2023-05-06T07:49:33.322Z,10.70
2023-05-06T07:52:36.539Z,9.97
2023-05-06T07:55:39.591Z,10.23
2023-05-06T07:58:42.666Z,10.30
2023-05-06T08:01:47.289Z,10.47
2023-05-06T08:04:51.600Z,9.77
2023-05-06T08:07:55.693Z,10.47
2023-05-06T08:10:59.820Z,11.03
2023-05-06T08:14:03.461Z,10.50
2023-05-06T08:17:07.803Z,9.83
2023-05-06T08:20:12.012Z,10.77
2023-05-06T08:23:14.977Z,11.60
2023-05-06T08:26:18.150Z,11.37
2023-05-06T08:29:21.311Z,11.73
2023-05-06T08:32:25.703Z,11.93
2023-05-06T08:35:28.778Z,11.87
2023-05-06T08:38:31.765Z,11.93
2023-05-06T08:41:38.962Z,11.00
2023-05-06T08:44:44.194Z,11.50
2023-05-06T08:47:48.900Z,11.80
2023-05-06T08:50:52.906Z,11.23
2023-05-06T08:53:56.475Z,11.80
2023-05-06T08:57:03.543Z,12.17
2023-05-06T09:00:10.969Z,12.93
2023-05-06T09:03:15.882Z,12.00
2023-05-06T09:06:19.254Z,11.73
2023-05-06T09:09:22.255Z,11.17
2023-05-06T09:12:25.734Z,11.13
2023-05-06T09:15:39.795Z,10.67
2023-05-06T09:18:44.217Z,11.63
2023-05-06T09:21:49.036Z,11.30
2023-05-06T09:24:56.656Z,10.80
2023-05-06T09:28:05.156Z,10.03
2023-05-06T09:31:08.293Z,9.70
2023-05-06T09:34:13.522Z,10.47
2023-05-06T09:37:16.482Z,11.17
2023-05-06T09:40:19.682Z,10.40
2023-05-06T09:43:23.053Z,10.07
2023-05-06T09:46:27.876Z,9.77
2023-05-06T09:49:32.964Z,9.97
2023-05-06T09:52:37.018Z,9.60
2023-05-06T09:55:42.297Z,8.70
2023-05-06T09:58:48.570Z,8.83
2023-05-06T10:01:52.936Z,9.93
2023-05-06T10:05:00.571Z,8.60
2023-05-06T10:08:04.772Z,8.40
2023-05-06T10:11:10.815Z,7.93
2023-05-06T10:14:14.077Z,8.53
2023-05-06T10:17:20.213Z,8.23
2023-05-06T10:20:25.713Z,8.83
2023-05-06T10:23:35.333Z,8.83
2023-05-06T10:26:39.817Z,8.70
2023-05-06T10:29:44.843Z,8.33
2023-05-06T10:32:48.284Z,9.20
2023-05-06T10:35:57.939Z,9.77
2023-05-06T10:39:03.392Z,8.90
2023-05-06T10:42:06.976Z,9.20
2023-05-06T10:45:11.205Z,8.10
2023-05-06T10:48:17.349Z,8.63
2023-05-06T10:51:27.213Z,8.63
2023-05-06T10:54:30.461Z,8.80
2023-05-06T10:57:42.127Z,7.83
2023-05-06T11:00:54.877Z,8.73
2023-05-06T11:03:58.529Z,7.63
2023-05-06T11:07:11.627Z,8.60
2023-05-06T11:10:15.198Z,8.40
2023-05-06T11:13:23.709Z,7.20
2023-05-06T11:16:49.367Z,7.03
2023-05-06T11:20:22.482Z,7.17
2023-05-06T11:24:05.394Z,7.60
2023-05-06T11:27:09.726Z,5.73
2023-05-06T11:30:15.955Z,6.33
2023-05-06T11:33:20.203Z,6.60
2023-05-06T11:36:23.395Z,6.07
2023-05-06T11:39:30.820Z,5.90
2023-05-06T11:42:35.140Z,5.53
2023-05-06T11:45:42.674Z,5.37
2023-05-06T11:48:45.639Z,5.63
2023-05-06T11:51:49.904Z,5.87
2023-05-06T11:54:54.848Z,5.97
2023-05-06T11:57:57.828Z,5.87
2023-05-06T12:01:01.987Z,5.70
2023-05-06T12:04:05.210Z,6.73
2023-05-06T12:07:09.735Z,5.90
2023-05-06T12:10:16.971Z,5.77
2023-05-06T12:13:20.501Z,6.13
2023-05-06T12:16:25.697Z,5.77
2023-05-06T12:19:30.460Z,6.03
2023-05-06T12:22:33.572Z,5.37
2023-05-06T12:25:38.192Z,5.47
2023-05-06T12:28:42.607Z,5.70
2023-05-06T12:31:48.054Z,5.70
2023-05-06T12:34:51.168Z,5.77
2023-05-06T12:37:54.163Z,5.07
2023-05-06T12:40:58.554Z,5.77
2023-05-06T12:44:01.498Z,5.57
2023-05-06T12:47:07.390Z,5.50
2023-05-06T12:50:11.328Z,5.27
2023-05-06T12:53:14.817Z,5.50
2023-05-06T12:56:20.201Z,5.27
2023-05-06T12:59:26.132Z,5.10
2023-05-06T13:02:29.145Z,4.93
2023-05-06T13:05:32.237Z,5.17
2023-05-06T13:08:35.269Z,4.93
2023-05-06T13:11:39.837Z,5.50
2023-05-06T13:14:42.888Z,5.10
2023-05-06T13:17:46.093Z,5.20
2023-05-06T13:20:49.204Z,5.27
2023-05-06T13:23:52.158Z,4.73
2023-05-06T13:26:57.570Z,4.63
2023-05-06T13:30:00.702Z,4.67
2023-05-06T13:33:04.090Z,4.73
2023-05-06T13:36:07.640Z,4.90
2023-05-06T13:39:10.778Z,5.00
2023-05-06T13:42:15.121Z,4.60
2023-05-06T13:45:18.103Z,5.07
2023-05-06T13:48:21.184Z,4.67
2023-05-06T13:51:24.257Z,4.60
2023-05-06T13:54:27.320Z,4.27
2023-05-06T13:57:31.642Z,4.50
2023-05-06T14:00:35.971Z,5.03
2023-05-06T14:03:38.913Z,5.33
2023-05-06T14:06:41.855Z,5.80
2023-05-06T14:09:46.490Z,5.33
2023-05-06T14:12:51.313Z,5.40
2023-05-06T14:15:55.870Z,5.43
2023-05-06T14:18:59.133Z,4.90
2023-05-06T14:22:02.405Z,4.80
2023-05-06T14:25:05.975Z,4.83
2023-05-06T14:28:10.860Z,4.90
2023-05-06T14:31:13.888Z,4.40
2023-05-06T14:34:16.891Z,4.40
2023-05-06T14:37:19.895Z,4.53
2023-05-06T14:40:23.080Z,5.33
2023-05-06T14:43:27.525Z,4.90
2023-05-06T14:46:30.913Z,4.37
2023-05-06T14:49:34.034Z,4.33
2023-05-06T14:52:38.703Z,4.57
2023-05-06T14:55:42.134Z,4.00
2023-05-06T14:58:46.990Z,4.10
2023-05-06T15:01:50.178Z,4.07
2023-05-06T15:04:53.316Z,4.10
2023-05-06T15:07:56.332Z,4.30
2023-05-06T15:11:00.197Z,4.20
2023-05-06T15:14:05.506Z,4.30
2023-05-06T15:17:08.923Z,4.67
2023-05-06T15:20:14.649Z,4.70
2023-05-06T15:23:17.645Z,4.70
2023-05-06T15:26:21.446Z,4.73
2023-05-06T15:29:26.124Z,4.93
2023-05-06T15:32:29.128Z,5.00
2023-05-06T15:35:32.626Z,5.00
2023-05-06T15:39:00.358Z,7.50
2023-05-06T15:42:04.170Z,7.13
2023-05-06T15:45:09.756Z,5.57
2023-05-06T15:48:12.782Z,4.90
2023-05-06T15:51:15.844Z,4.80
2023-05-06T15:54:19.302Z,4.90
2023-05-06T15:57:22.281Z,4.93
2023-05-06T16:00:28.555Z,5.20
2023-05-06T16:03:31.847Z,5.77
2023-05-06T16:06:35.652Z,5.33
2023-05-06T16:09:38.664Z,5.53
2023-05-06T16:12:41.825Z,5.80
2023-05-06T16:15:46.292Z,5.80
2023-05-06T16:18:49.415Z,5.83
2023-05-06T16:21:53.406Z,5.50
2023-05-06T16:24:56.412Z,6.53
2023-05-06T16:27:59.525Z,6.50
2023-05-06T16:31:04.759Z,5.77
2023-05-06T16:34:07.765Z,6.30
2023-05-06T16:37:10.845Z,6.40
2023-05-06T16:40:15.690Z,6.27
2023-05-06T16:43:19.565Z,6.60
2023-05-06T16:46:24.543Z,6.40
2023-05-06T16:49:27.982Z,6.33
2023-05-06T16:52:32.258Z,6.40
2023-05-06T16:55:35.552Z,6.53
2023-05-06T16:58:38.628Z,6.23
2023-05-06T17:01:43.044Z,6.60
2023-05-06T17:04:46.030Z,6.47
2023-05-06T17:07:50.322Z,7.20
2023-05-06T17:10:53.968Z,6.93
2023-05-06T17:13:56.979Z,6.60
2023-05-06T17:17:03.962Z,7.27
2023-05-06T17:20:08.583Z,6.40
2023-05-06T17:23:11.672Z,7.23
2023-05-06T17:26:19.001Z,6.50
2023-05-06T17:29:22.293Z,6.70
2023-05-06T17:32:26.911Z,7.27
2023-05-06T17:35:29.927Z,7.73
2023-05-06T17:38:33.022Z,7.50
2023-05-06T17:41:36.162Z,7.30
2023-05-06T17:44:39.785Z,8.53
2023-05-06T17:47:44.198Z,7.53
2023-05-06T17:50:47.204Z,7.57
2023-05-06T17:53:50.150Z,7.30
2023-05-06T17:56:53.292Z,6.97
2023-05-06T17:59:56.286Z,7.70
2023-05-06T18:03:00.913Z,7.73
2023-05-06T18:06:04.124Z,8.10
2023-05-06T18:09:07.303Z,8.37
2023-05-06T18:12:10.267Z,8.17
2023-05-06T18:15:13.554Z,7.23
2023-05-06T18:18:18.244Z,8.23
2023-05-06T18:21:21.197Z,7.80
2023-05-06T18:24:24.342Z,8.20
2023-05-06T18:27:29.530Z,8.40
2023-05-06T18:30:32.500Z,7.83
2023-05-06T18:33:36.991Z,8.50
2023-05-06T18:36:40.085Z,9.30
2023-05-06T18:39:43.622Z,9.57
2023-05-06T18:42:48.102Z,9.50
2023-05-06T18:45:52.768Z,10.03
2023-05-06T18:48:57.916Z,10.07
2023-05-06T18:52:02.228Z,9.70
2023-05-06T18:55:05.653Z,11.07
2023-05-06T18:58:08.919Z,11.00
2023-05-06T19:01:12.640Z,11.47
2023-05-06T19:04:17.168Z,11.40
2023-05-06T19:07:20.201Z,11.30
2023-05-06T19:10:23.774Z,11.80
2023-05-06T19:13:26.878Z,11.77
2023-05-06T19:16:30.267Z,12.07
2023-05-06T19:19:34.579Z,13.33
2023-05-06T19:22:37.634Z,12.43
2023-05-06T19:25:40.837Z,13.43
2023-05-06T19:28:43.880Z,13.40
2023-05-06T19:31:46.851Z,13.07
2023-05-06T19:34:51.230Z,13.10
2023-05-06T19:37:54.615Z,13.47
2023-05-06T19:40:57.667Z,13.73
2023-05-06T19:44:00.659Z,14.00
2023-05-06T19:47:05.294Z,14.27
2023-05-06T19:50:10.835Z,15.00
2023-05-06T19:53:14.093Z,15.00
2023-05-06T19:56:18.748Z,15.30
2023-05-06T19:59:21.779Z,14.40
2023-05-06T20:02:24.885Z,13.70
2023-05-06T20:05:31.390Z,14.77
2023-05-06T20:08:35.132Z,16.43
2023-05-06T20:11:38.114Z,15.73
2023-05-06T20:14:41.593Z,15.33
2023-05-06T20:17:44.536Z,16.67
2023-05-06T20:20:48.975Z,16.80
2023-05-06T20:23:52.058Z,15.87
2023-05-06T20:26:55.920Z,16.93
2023-05-06T20:29:58.923Z,16.90
2023-05-06T20:33:02.077Z,16.60
2023-05-06T20:36:07.111Z,15.20
2023-05-06T20:39:15.824Z,16.00
2023-05-06T20:42:18.917Z,15.70
2023-05-06T20:45:22.198Z,16.33
2023-05-06T20:48:26.959Z,15.97
2023-05-06T20:51:31.405Z,16.90
2023-05-06T20:54:34.408Z,17.47
2023-05-06T20:57:43.450Z,16.13
2023-05-06T21:00:46.495Z,17.10
2023-05-06T21:03:50.118Z,17.60
2023-05-06T21:06:54.839Z,17.57
2023-05-06T21:09:59.501Z,18.97
2023-05-06T21:13:02.657Z,18.33
2023-05-06T21:16:08.004Z,16.63
2023-05-06T21:19:12.846Z,18.70
2023-05-06T21:22:17.382Z,18.53
2023-05-06T21:25:20.710Z,17.90
2023-05-06T21:28:23.952Z,17.80
2023-05-06T21:31:30.237Z,17.83
2023-05-06T21:34:34.694Z,18.27
2023-05-06T21:37:39.072Z,17.43
2023-05-06T21:40:47.690Z,19.70
2023-05-06T21:43:50.725Z,19.30
2023-05-06T21:46:53.886Z,18.80
2023-05-06T21:49:59.461Z,18.67
2023-05-06T21:53:03.972Z,18.87
2023-05-06T21:56:09.509Z,17.37
2023-05-06T21:59:13.770Z,18.67
2023-05-06T22:02:17.006Z,17.23
2023-05-06T22:05:20.453Z,17.60
2023-05-06T22:08:24.963Z,17.47
2023-05-06T22:11:27.957Z,17.23
2023-05-06T22:14:40.644Z,16.87
2023-05-06T22:17:44.851Z,16.80
2023-05-06T22:20:49.225Z,17.00
2023-05-06T22:23:53.593Z,17.27
2023-05-06T22:26:56.597Z,18.40
2023-05-06T22:29:59.546Z,16.63
2023-05-06T22:33:02.651Z,17.57
2023-05-06T22:36:06.385Z,16.03
2023-05-06T22:39:10.761Z,16.23
2023-05-06T22:42:16.028Z,16.77
2023-05-06T22:45:19.091Z,15.90
2023-05-06T22:48:22.421Z,16.73
2023-05-06T22:51:25.380Z,16.30
2023-05-06T22:54:29.892Z,16.30
2023-05-06T22:57:32.953Z,16.40
2023-05-06T23:00:36.346Z,16.77
2023-05-06T23:03:39.444Z,16.73
2023-05-06T23:06:44.436Z,17.03
2023-05-06T23:09:48.768Z,17.33
2023-05-06T23:12:52.040Z,17.10
2023-05-06T23:15:55.173Z,16.47
2023-05-06T23:19:00.117Z,15.50
2023-05-06T23:22:04.826Z,16.60
2023-05-06T23:25:11.597Z,16.37
2023-05-06T23:28:17.488Z,17.00
2023-05-06T23:31:20.962Z,15.83
2023-05-06T23:34:24.420Z,16.10
2023-05-06T23:37:30.140Z,16.87
2023-05-06T23:40:35.667Z,16.40
2023-05-06T23:43:38.673Z,15.53
2023-05-06T23:46:41.693Z,14.83
2023-05-06T23:49:44.943Z,14.77
2023-05-06T23:52:47.902Z,15.80
2023-05-06T23:55:52.498Z,15.30
2023-05-06T23:58:55.489Z,15.17
